Time;durP1;ratioP1;P1;durP2;ratioP2;P2;SDS_P1;SDS_P2;PMS_P1;PMS_P2;Temp;Humidity;BMP_temperature;BMP_pressure;BME280_temperature;BME280_humidity;BME280_pressure;Samples;Min_cycle;Max_cycle;Signal;HPM_P1;HPM_P2
2021/11/20 00:00:18;;;;;;;16.85;10.82;;;6.80;99.90;;;;;;5033996;28;20026;-81
2021/11/20 00:02:44;;;;;;;16.13;10.82;;;6.80;99.90;;;;;;5033985;28;20029;-81
2021/11/20 00:05:16;;;;;;;16.25;10.30;;;6.80;99.90;;;;;;5065865;28;20476;-82
2021/11/20 00:07:42;;;;;;;15.00;10.20;;;6.80;99.90;;;;;;5065977;28;20120;-82
2021/11/20 00:10:10;;;;;;;15.95;10.25;;;6.80;99.90;;;;;;5033814;28;20060;-82
2021/11/20 00:12:37;;;;;;;16.65;10.00;;;6.80;99.90;;;;;;5033975;28;20025;-81
2021/11/20 00:15:07;;;;;;;16.15;11.18;;;6.80;99.90;;;;;;5033716;28;20181;-81
2021/11/20 00:17:33;;;;;;;15.77;10.32;;;6.80;99.90;;;;;;5065263;28;20472;-82
2021/11/20 00:19:58;;;;;;;15.93;11.13;;;6.80;99.90;;;;;;5032387;28;20030;-81
2021/11/20 00:22:30;;;;;;;17.23;10.55;;;6.80;99.90;;;;;;5019154;28;20080;-81
2021/11/20 00:25:01;;;;;;;16.35;10.43;;;6.80;99.90;;;;;;5013692;28;20026;-81
2021/11/20 00:27:33;;;;;;;15.60;10.77;;;6.80;99.90;;;;;;5045811;28;20041;-82
2021/11/20 00:30:03;;;;;;;17.55;11.75;;;6.80;99.90;;;;;;5029166;28;20084;-80
2021/11/20 00:32:34;;;;;;;18.98;11.45;;;6.80;99.90;;;;;;5045744;28;20123;-81
2021/11/20 00:35:05;;;;;;;16.92;11.43;;;6.90;99.90;;;;;;5013986;28;20084;-81
2021/11/20 00:37:31;;;;;;;17.20;11.40;;;6.90;99.90;;;;;;5014000;28;20022;-82
2021/11/20 00:39:57;;;;;;;17.08;11.80;;;6.90;99.90;;;;;;5013806;28;20456;-82
2021/11/20 00:42:23;;;;;;;19.67;12.63;;;6.90;99.90;;;;;;5012214;28;20057;-82
2021/11/20 00:44:49;;;;;;;18.60;11.45;;;6.90;99.90;;;;;;5012370;28;20054;-82
2021/11/20 00:47:17;;;;;;;21.83;13.13;;;7.00;99.90;;;;;;5012607;28;20461;-82
2021/11/20 00:49:43;;;;;;;21.50;13.10;;;6.90;99.90;;;;;;5045240;28;20076;-82
2021/11/20 00:52:10;;;;;;;21.13;12.65;;;7.00;99.90;;;;;;5028878;28;20424;-82
2021/11/20 00:54:39;;;;;;;23.75;13.18;;;7.00;99.90;;;;;;5045399;28;20033;-82
2021/11/20 00:57:06;;;;;;;18.42;11.80;;;7.00;99.90;;;;;;5045499;28;20472;-81
2021/11/20 00:59:32;;;;;;;22.40;13.15;;;7.00;99.90;;;;;;5012886;28;20030;-82
2021/11/20 01:02:01;;;;;;;23.70;13.10;;;7.00;99.90;;;;;;5013436;28;20041;-82
2021/11/20 01:04:29;;;;;;;21.80;13.15;;;7.00;99.90;;;;;;5013946;28;20034;-82
2021/11/20 01:06:56;;;;;;;21.95;13.40;;;7.00;99.90;;;;;;5045341;28;20030;-80
2021/11/20 01:09:27;;;;;;;20.38;12.57;;;7.00;99.90;;;;;;5045215;28;20056;-81
2021/11/20 01:12:03;;;;;;;18.70;12.32;;;7.00;99.90;;;;;;5045680;28;20381;-81
2021/11/20 01:14:31;;;;;;;22.67;13.38;;;7.00;99.90;;;;;;5013361;28;20041;-81
2021/11/20 01:16:58;;;;;;;20.58;12.63;;;7.00;99.90;;;;;;5045289;28;20052;-81
2021/11/20 01:19:25;;;;;;;21.05;13.48;;;7.00;99.90;;;;;;5045092;28;20026;-81
2021/11/20 01:21:53;;;;;;;22.52;13.10;;;7.00;99.90;;;;;;5045167;28;20092;-81
2021/11/20 01:24:19;;;;;;;22.48;13.65;;;7.00;99.90;;;;;;5013625;28;20092;-82
2021/11/20 01:26:46;;;;;;;21.08;12.80;;;7.00;99.90;;;;;;5045202;28;20030;-83
2021/11/20 01:29:14;;;;;;;20.33;12.25;;;7.00;99.90;;;;;;5015107;28;20041;-80
2021/11/20 01:31:42;;;;;;;20.05;12.60;;;7.00;99.90;;;;;;5031818;28;20129;-81
2021/11/20 01:34:09;;;;;;;22.58;13.00;;;7.10;99.90;;;;;;5048366;28;20492;-82
2021/11/20 01:36:38;;;;;;;19.30;11.65;;;7.10;99.90;;;;;;5048383;28;20029;-81
2021/11/20 01:39:09;;;;;;;19.67;12.10;;;7.10;99.90;;;;;;5016892;28;20033;-81
2021/11/20 01:41:36;;;;;;;21.77;12.73;;;7.10;99.90;;;;;;5048303;28;20022;-81
2021/11/20 01:44:37;;;;;;;22.33;13.57;;;7.10;99.90;;;;;;5048199;28;20500;-81
2021/11/20 01:47:19;;;;;;;19.08;11.82;;;7.10;99.90;;;;;;5015330;28;20042;-82
2021/11/20 01:49:54;;;;;;;18.88;12.02;;;7.10;99.90;;;;;;5048550;28;20033;-81
2021/11/20 01:52:42;;;;;;;21.20;12.95;;;7.10;99.90;;;;;;5016632;28;20038;-82
2021/11/20 01:55:27;;;;;;;21.63;12.77;;;7.10;99.90;;;;;;5015040;28;20037;-84
2021/11/20 01:58:19;;;;;;;17.85;11.02;;;7.10;99.90;;;;;;5016310;28;20034;-82
2021/11/20 02:00:53;;;;;;;18.48;11.10;;;7.10;99.90;;;;;;5016425;28;20362;-81
2021/11/20 02:03:28;;;;;;;18.17;11.02;;;7.10;99.90;;;;;;5016109;28;20121;-85
2021/11/20 02:06:26;;;;;;;19.20;11.80;;;7.10;99.90;;;;;;5014894;28;20026;-81
2021/11/20 02:09:14;;;;;;;16.85;10.40;;;7.10;99.90;;;;;;4974547;28;20237;-83
2021/11/20 02:12:01;;;;;;;18.80;10.63;;;7.10;99.90;;;;;;4986220;28;20045;-82
2021/11/20 02:14:29;;;;;;;17.75;10.50;;;7.10;99.90;;;;;;5048405;28;20034;-82
2021/11/20 02:17:08;;;;;;;17.40;10.45;;;7.10;99.90;;;;;;5014700;28;20026;-82
2021/11/20 02:19:39;;;;;;;18.17;10.90;;;7.10;99.90;;;;;;5049819;28;20017;-84
2021/11/20 02:22:25;;;;;;;;;;;7.10;99.90;;;;;;5033130;28;20029;-82
2021/11/20 02:24:51;;;;;;;16.05;9.85;;;7.10;99.90;;;;;;5018802;28;19909;-81
2021/11/20 02:27:17;;;;;;;14.90;9.68;;;7.10;99.90;;;;;;5031013;28;20033;-82
2021/11/20 02:29:46;;;;;;;14.32;9.48;;;7.10;99.90;;;;;;5016119;28;20383;-81
2021/11/20 02:32:20;;;;;;;14.20;8.82;;;7.10;99.90;;;;;;5031032;28;20545;-81
2021/11/20 02:34:48;;;;;;;13.25;8.10;;;7.10;99.90;;;;;;5047161;28;20511;-82
2021/11/20 02:37:14;;;;;;;13.60;8.38;;;7.20;99.90;;;;;;5047576;28;20036;-81
2021/11/20 02:39:42;;;;;;;13.05;8.48;;;7.20;99.90;;;;;;5029478;28;20460;-81
2021/11/20 02:42:17;;;;;;;12.07;8.27;;;7.20;99.90;;;;;;5035260;28;20349;-82
2021/11/20 02:44:44;;;;;;;12.43;7.65;;;7.20;99.90;;;;;;5033655;28;20076;-82
2021/11/20 02:47:37;;;;;;;13.60;8.30;;;7.20;99.90;;;;;;5033872;28;20029;-81
2021/11/20 02:50:04;;;;;;;11.75;7.63;;;7.30;99.90;;;;;;5034257;28;20376;-81
2021/11/20 02:52:30;;;;;;;14.63;8.25;;;7.30;99.90;;;;;;5035170;28;20088;-82
2021/11/20 02:54:56;;;;;;;11.15;7.75;;;7.40;99.90;;;;;;5033414;28;20045;-82
2021/11/20 02:57:29;;;;;;;11.38;8.15;;;7.40;99.90;;;;;;5033522;28;20472;-82
2021/11/20 02:59:55;;;;;;;10.70;7.15;;;7.50;99.90;;;;;;5034746;28;20025;-83
2021/11/20 03:02:22;;;;;;;10.35;6.95;;;7.50;99.90;;;;;;5066820;28;20063;-82
2021/11/20 03:04:47;;;;;;;10.43;6.63;;;7.50;99.90;;;;;;5033755;28;20033;-82
2021/11/20 03:07:14;;;;;;;9.32;6.35;;;7.60;99.90;;;;;;5066103;28;20021;-81
2021/11/20 03:09:41;;;;;;;13.77;7.85;;;7.60;99.90;;;;;;5034433;28;20030;-81
2021/11/20 03:12:10;;;;;;;12.10;7.05;;;7.60;99.90;;;;;;5033353;28;20475;-82
2021/11/20 03:14:37;;;;;;;9.40;6.35;;;7.60;99.90;;;;;;5033276;28;20037;-82
2021/11/20 03:17:06;;;;;;;12.02;6.43;;;7.70;99.90;;;;;;5033470;28;20064;-82
2021/11/20 03:19:35;;;;;;;9.65;6.28;;;7.70;99.90;;;;;;5033259;28;20025;-82
2021/11/20 03:22:10;;;;;;;9.45;6.32;;;7.80;99.90;;;;;;5035023;28;20040;-83
2021/11/20 03:24:37;;;;;;;10.68;6.25;;;7.80;99.90;;;;;;5036240;28;20034;-82
2021/11/20 03:27:04;;;;;;;10.07;6.40;;;7.90;99.90;;;;;;5037377;28;20041;-82
2021/11/20 03:29:31;;;;;;;11.20;6.53;;;7.90;99.90;;;;;;5037980;28;20033;-79
2021/11/20 03:31:58;;;;;;;12.18;6.85;;;7.90;99.90;;;;;;5044119;28;20017;-80
2021/11/20 03:34:25;;;;;;;12.02;6.70;;;8.00;99.90;;;;;;5056233;28;20025;-80
2021/11/20 03:36:53;;;;;;;10.43;6.90;;;8.00;99.90;;;;;;5057132;28;20018;-81
2021/11/20 03:39:18;;;;;;;11.82;7.30;;;8.00;99.90;;;;;;5057323;28;20021;-79
2021/11/20 03:41:45;;;;;;;12.60;8.02;;;8.10;99.90;;;;;;5049642;28;20031;-80
2021/11/20 03:44:11;;;;;;;12.45;8.45;;;8.10;99.90;;;;;;5043600;28;20099;-82
2021/11/20 03:46:39;;;;;;;12.48;7.50;;;8.20;99.90;;;;;;5038837;28;20028;-82
2021/11/20 03:49:05;;;;;;;14.35;8.68;;;8.20;99.90;;;;;;5040173;28;20021;-81
2021/11/20 03:51:33;;;;;;;13.35;8.65;;;8.30;99.90;;;;;;5032807;28;20029;-82
2021/11/20 03:53:59;;;;;;;13.27;8.13;;;8.30;99.90;;;;;;5034304;28;20041;-81
2021/11/20 03:56:25;;;;;;;12.15;7.90;;;8.30;99.90;;;;;;5032969;28;20048;-82
2021/11/20 03:58:51;;;;;;;12.45;7.95;;;8.40;99.90;;;;;;5033704;28;20064;-82
2021/11/20 04:01:19;;;;;;;12.18;8.25;;;8.40;99.90;;;;;;5035630;28;20029;-82
2021/11/20 04:03:46;;;;;;;12.95;8.43;;;8.40;99.90;;;;;;5036706;28;20041;-81
2021/11/20 04:06:18;;;;;;;11.25;8.07;;;8.40;99.90;;;;;;5034987;28;20022;-83
2021/11/20 04:08:47;;;;;;;12.57;7.88;;;8.50;99.90;;;;;;5040158;28;20030;-82
2021/11/20 04:11:15;;;;;;;11.88;8.35;;;8.50;99.90;;;;;;5035489;28;20083;-82
2021/11/20 04:13:43;;;;;;;11.95;8.02;;;8.50;99.90;;;;;;5033183;28;20118;-82
2021/11/20 04:16:11;;;;;;;13.63;9.23;;;8.50;99.90;;;;;;5032727;28;20136;-82
2021/11/20 04:18:38;;;;;;;12.70;7.75;;;8.60;99.90;;;;;;5033643;28;20025;-82
2021/11/20 04:21:05;;;;;;;14.30;8.88;;;8.60;99.90;;;;;;5032197;28;20107;-82
2021/11/20 04:23:31;;;;;;;13.15;8.50;;;8.60;99.90;;;;;;5034321;28;20025;-82
2021/11/20 04:25:57;;;;;;;13.25;8.73;;;8.70;99.90;;;;;;5032452;28;20352;-81
2021/11/20 04:28:23;;;;;;;12.95;8.25;;;8.70;99.90;;;;;;5032208;28;20030;-80
2021/11/20 04:30:50;;;;;;;12.45;8.75;;;8.70;99.90;;;;;;5032945;28;20037;-80
2021/11/20 04:33:16;;;;;;;11.60;7.50;;;8.80;99.90;;;;;;5033582;28;20058;-82
2021/11/20 04:35:43;;;;;;;11.40;7.40;;;8.80;99.90;;;;;;5031906;28;20030;-82
2021/11/20 04:38:10;;;;;;;11.65;7.70;;;8.90;99.90;;;;;;5031777;28;20100;-82
2021/11/20 04:40:36;;;;;;;12.93;8.10;;;8.90;99.90;;;;;;5033398;28;20064;-82
2021/11/20 04:43:03;;;;;;;11.63;7.57;;;9.00;99.90;;;;;;5032219;28;20364;-81
2021/11/20 04:45:34;;;;;;;11.77;7.82;;;9.00;99.90;;;;;;5032263;28;20025;-81
2021/11/20 04:48:02;;;;;;;12.45;8.18;;;9.00;99.90;;;;;;5032486;28;20096;-82
2021/11/20 04:50:28;;;;;;;11.60;7.53;;;9.00;99.90;;;;;;5032100;28;20022;-81
2021/11/20 04:52:54;;;;;;;10.82;7.63;;;9.10;99.90;;;;;;5032216;28;20030;-80
2021/11/20 04:55:21;;;;;;;9.68;7.13;;;9.10;99.90;;;;;;5015762;28;20086;-82
2021/11/20 04:57:47;;;;;;;10.60;7.05;;;9.10;99.90;;;;;;5032225;28;20103;-80
2021/11/20 05:00:24;;;;;;;11.38;7.00;;;9.20;99.90;;;;;;5033182;28;20061;-82
2021/11/20 05:02:50;;;;;;;10.25;6.93;;;9.20;99.90;;;;;;5033047;28;20104;-82
2021/11/20 05:05:17;;;;;;;9.75;6.45;;;9.20;99.90;;;;;;5037352;28;20025;-81
2021/11/20 05:07:43;;;;;;;10.13;6.53;;;9.20;99.90;;;;;;5019189;28;20034;-80
2021/11/20 05:10:10;;;;;;;10.13;6.40;;;9.20;99.90;;;;;;5037067;28;20038;-81
2021/11/20 05:12:38;;;;;;;8.30;5.80;;;9.20;99.90;;;;;;5036955;28;20083;-81
2021/11/20 05:15:07;;;;;;;8.63;5.78;;;9.30;99.90;;;;;;5036977;28;20041;-81
2021/11/20 05:17:33;;;;;;;9.73;6.30;;;9.30;99.90;;;;;;5037127;28;20017;-81
2021/11/20 05:19:59;;;;;;;10.65;7.22;;;9.30;99.90;;;;;;5035519;28;20021;-81
2021/11/20 05:22:25;;;;;;;10.02;6.80;;;9.30;99.90;;;;;;5035377;28;20029;-81
2021/11/20 05:24:51;;;;;;;9.93;6.30;;;9.30;99.90;;;;;;5034163;28;20075;-82
2021/11/20 05:27:17;;;;;;;9.48;6.07;;;9.40;99.90;;;;;;5035078;28;20040;-81
2021/11/20 05:29:57;;;;;;;8.90;5.90;;;9.40;99.90;;;;;;5035179;28;20117;-81
2021/11/20 05:32:23;;;;;;;9.77;6.20;;;9.40;99.90;;;;;;5035225;28;20061;-84
2021/11/20 05:34:49;;;;;;;8.80;6.32;;;9.50;99.90;;;;;;5035293;28;20075;-86
2021/11/20 05:37:16;;;;;;;9.13;5.45;;;9.50;99.90;;;;;;5036264;28;20536;-83
2021/11/20 05:39:42;;;;;;;8.70;5.45;;;9.60;99.90;;;;;;5068196;28;20579;-86
2021/11/20 05:42:08;;;;;;;7.70;5.15;;;9.70;99.90;;;;;;5028427;28;20033;-84
2021/11/20 05:44:34;;;;;;;7.00;5.07;;;9.70;99.90;;;;;;5034944;28;20063;-92
2021/11/20 05:47:01;;;;;;;9.57;6.00;;;9.80;99.90;;;;;;5067802;28;20034;-85
2021/11/20 05:49:30;;;;;;;8.05;5.60;;;9.90;99.90;;;;;;5036273;28;20026;-85
2021/11/20 05:51:56;;;;;;;6.55;4.50;;;9.90;99.90;;;;;;5035461;28;20386;-90
2021/11/20 05:54:23;;;;;;;7.57;5.50;;;10.00;99.90;;;;;;5035155;28;20121;-85
2021/11/20 05:56:49;;;;;;;6.65;4.95;;;10.00;99.90;;;;;;5035684;28;20160;-87
2021/11/20 05:59:15;;;;;;;7.07;4.90;;;10.00;99.90;;;;;;5035910;28;20120;-85
2021/11/20 06:01:42;;;;;;;6.10;4.30;;;10.10;99.90;;;;;;5036378;28;20095;-87
2021/11/20 06:04:08;;;;;;;6.00;4.30;;;10.10;99.90;;;;;;5034684;28;20478;-84
2021/11/20 06:06:34;;;;;;;6.72;4.40;;;10.10;99.90;;;;;;5036188;28;20025;-86
2021/11/20 06:09:02;;;;;;;7.18;4.82;;;10.20;99.90;;;;;;5032385;28;20029;-91
2021/11/20 06:11:28;;;;;;;7.10;4.70;;;10.20;99.90;;;;;;5036358;28;20475;-85
2021/11/20 06:13:54;;;;;;;7.57;5.38;;;10.20;99.90;;;;;;5034855;28;20124;-84
2021/11/20 06:16:20;;;;;;;6.53;4.75;;;10.20;99.90;;;;;;5036821;28;20037;-92
2021/11/20 06:18:46;;;;;;;7.35;4.97;;;10.20;99.90;;;;;;5034832;28;20033;-87
2021/11/20 06:21:12;;;;;;;6.45;4.60;;;10.30;99.90;;;;;;5034824;28;20041;-94
2021/11/20 06:23:40;;;;;;;7.13;4.80;;;10.30;99.90;;;;;;5034683;28;20040;-85
2021/11/20 06:26:08;;;;;;;6.43;4.40;;;10.30;99.90;;;;;;5035604;28;20021;-82
2021/11/20 06:28:35;;;;;;;6.40;4.38;;;10.40;99.90;;;;;;5033536;28;20108;-84
2021/11/20 06:31:01;;;;;;;5.78;4.13;;;10.40;99.90;;;;;;5033937;28;20040;-85
2021/11/20 06:33:29;;;;;;;5.97;4.00;;;10.40;99.90;;;;;;5032395;28;20038;-84
2021/11/20 06:35:57;;;;;;;181.60;113.68;;;10.40;99.90;;;;;;5034020;28;20384;-84
2021/11/20 06:38:24;;;;;;;47.72;30.33;;;10.40;99.90;;;;;;5034457;28;20076;-85
2021/11/20 06:40:52;;;;;;;17.55;10.90;;;10.50;99.90;;;;;;5066803;28;20034;-84
2021/11/20 06:43:23;;;;;;;11.00;6.75;;;10.50;99.90;;;;;;5064934;28;20057;-83
2021/11/20 06:45:53;;;;;;;8.63;5.78;;;10.50;99.90;;;;;;5030810;28;20396;-82
2021/11/20 06:48:20;;;;;;;7.35;4.43;;;10.50;99.90;;;;;;5033173;28;20049;-81
2021/11/20 06:50:46;;;;;;;6.22;3.70;;;10.60;99.90;;;;;;5032239;28;20040;-84
2021/11/20 06:53:14;;;;;;;5.38;3.72;;;10.60;99.90;;;;;;5025930;28;20564;-82
2021/11/20 06:55:41;;;;;;;4.50;3.20;;;10.60;99.90;;;;;;5020145;28;20025;-83
2021/11/20 07:01:05;;;;;;;3.30;2.60;;;10.70;99.90;;;;;;5027357;28;20030;-82
2021/11/20 07:03:33;;;;;;;;;;;10.80;99.90;;;;;;5023118;28;20069;-85
2021/11/20 07:06:04;;;;;;;6.13;3.20;;;10.90;99.90;;;;;;5014257;28;20336;-82
2021/11/20 07:08:30;;;;;;;5.10;2.95;;;10.90;99.90;;;;;;5029410;28;20068;-82
2021/11/20 07:10:58;;;;;;;4.43;3.13;;;11.00;99.90;;;;;;5013966;28;20109;-82
2021/11/20 07:13:25;;;;;;;4.07;2.88;;;11.10;99.90;;;;;;5027872;28;20080;-84
2021/11/20 07:15:53;;;;;;;6.03;3.17;;;11.20;99.90;;;;;;5021763;28;20029;-82
2021/11/20 07:18:22;;;;;;;5.00;3.00;;;11.30;99.90;;;;;;5044994;28;20038;-84
2021/11/20 07:20:48;;;;;;;5.63;3.30;;;11.40;99.90;;;;;;5046100;28;20026;-81
2021/11/20 07:23:15;;;;;;;4.82;3.03;;;11.40;99.90;;;;;;5045967;28;20468;-82
2021/11/20 07:25:41;;;;;;;5.28;3.10;;;11.50;99.90;;;;;;5014106;28;20041;-83
2021/11/20 07:28:11;;;;;;;5.03;2.85;;;11.50;99.90;;;;;;5044838;28;20029;-84
2021/11/20 07:30:40;;;;;;;5.18;2.90;;;11.50;99.90;;;;;;5044256;28;20029;-83
2021/11/20 07:33:07;;;;;;;3.97;2.60;;;11.60;99.90;;;;;;5044911;28;20034;-81
2021/11/20 07:35:34;;;;;;;3.85;2.63;;;11.60;99.90;;;;;;5048424;28;20032;-82
2021/11/20 07:38:02;;;;;;;3.22;2.35;;;11.90;99.90;;;;;;5015330;28;20436;-83
2021/11/20 07:40:31;;;;;;;6.97;2.70;;;12.20;99.90;;;;;;5047960;28;20022;-84
2021/11/20 07:42:56;;;;;;;3.92;2.60;;;12.30;99.90;;;;;;5031763;28;20033;-83
2021/11/20 07:45:23;;;;;;;4.07;2.88;;;12.40;99.90;;;;;;5032285;28;20026;-83
2021/11/20 07:47:50;;;;;;;5.75;2.83;;;12.40;99.90;;;;;;5018264;28;20037;-83
2021/11/20 07:50:17;;;;;;;8.07;3.47;;;12.40;99.90;;;;;;5012058;28;20022;-84
2021/11/20 07:52:44;;;;;;;5.97;2.97;;;12.60;99.90;;;;;;5013283;28;20034;-83
2021/11/20 07:55:12;;;;;;;5.43;2.92;;;12.80;99.90;;;;;;5013348;28;20111;-83
2021/11/20 07:57:39;;;;;;;5.43;3.03;;;13.10;99.90;;;;;;5013968;28;20049;-83
2021/11/20 08:00:12;;;;;;;6.13;2.90;;;13.50;99.90;;;;;;5013963;28;20018;-84
2021/11/20 08:02:37;;;;;;;6.43;2.60;;;14.10;99.90;;;;;;5012922;28;20034;-83
2021/11/20 08:05:05;;;;;;;4.03;2.40;;;14.70;97.10;;;;;;5014970;28;20485;-83
2021/11/20 08:07:31;;;;;;;3.75;2.40;;;15.20;96.90;;;;;;5014932;28;20036;-83
2021/11/20 08:09:58;;;;;;;4.65;2.30;;;15.70;91.20;;;;;;5030158;28;20030;-83
2021/11/20 08:12:24;;;;;;;3.22;2.00;;;16.00;86.50;;;;;;5031812;28;20453;-82
2021/11/20 08:14:50;;;;;;;3.47;2.00;;;16.20;90.30;;;;;;5033100;28;20038;-83
2021/11/20 08:17:15;;;;;;;3.53;2.10;;;16.60;89.00;;;;;;5031473;28;20192;-83
2021/11/20 08:19:41;;;;;;;4.40;1.90;;;16.90;83.70;;;;;;5031514;28;20033;-82
2021/11/20 08:22:08;;;;;;;3.38;1.95;;;17.10;80.50;;;;;;5032875;28;20348;-85
2021/11/20 08:24:34;;;;;;;3.08;1.80;;;17.30;79.20;;;;;;5031962;28;20042;-83
2021/11/20 08:27:01;;;;;;;3.33;1.90;;;17.40;76.30;;;;;;5032729;28;20033;-82
2021/11/20 08:29:30;;;;;;;2.58;1.60;;;17.50;76.20;;;;;;5033740;28;20041;-81
2021/11/20 08:31:56;;;;;;;3.65;2.20;;;17.60;75.70;;;;;;5043611;28;20049;-83
2021/11/20 08:34:24;;;;;;;2.40;1.70;;;17.80;74.40;;;;;;5050958;28;20038;-83
2021/11/20 08:36:50;;;;;;;5.88;2.28;;;18.10;73.70;;;;;;5054262;28;20029;-91
2021/11/20 08:39:17;;;;;;;6.28;2.53;;;18.40;72.00;;;;;;5046256;28;20022;-87
2021/11/20 08:41:47;;;;;;;77.55;56.00;;;18.60;68.20;;;;;;5035719;28;20026;-84
2021/11/20 08:44:14;;;;;;;69.90;52.78;;;18.70;67.30;;;;;;5067048;28;20076;-90
2021/11/20 08:46:40;;;;;;;64.50;44.95;;;18.70;68.80;;;;;;5063436;28;20037;-80
2021/11/20 08:49:07;;;;;;;18.65;12.13;;;19.10;67.90;;;;;;5034547;28;20005;-86
2021/11/20 08:51:34;;;;;;;10.95;6.10;;;19.30;66.20;;;;;;5025158;28;20044;-80
2021/11/20 08:54:00;;;;;;;4.93;3.40;;;19.50;66.10;;;;;;5015712;28;20042;-81
2021/11/20 08:56:27;;;;;;;4.43;2.22;;;19.70;64.70;;;;;;5013839;28;20395;-82
2021/11/20 08:58:55;;;;;;;3.97;2.20;;;19.80;63.30;;;;;;5014590;28;20029;-86
2021/11/20 09:01:26;;;;;;;3.45;2.00;;;19.60;61.70;;;;;;5014049;28;20034;-87
2021/11/20 09:04:06;;;;;;;2.92;1.88;;;19.20;62.40;;;;;;5032323;28;20050;-87
2021/11/20 09:06:46;;;;;;;3.80;2.10;;;18.60;62.70;;;;;;5032922;28;20026;-86
2021/11/20 09:09:18;;;;;;;;;;;18.40;63.90;;;;;;5017615;28;20029;-85
2021/11/20 09:11:49;;;;;;;3.38;1.80;;;18.10;60.90;;;;;;5032185;28;19906;-87
2021/11/20 09:14:17;;;;;;;5.22;1.67;;;18.30;65.00;;;;;;5031163;28;20045;-87
2021/11/20 09:16:43;;;;;;;3.35;1.70;;;18.30;63.40;;;;;;5013668;28;20046;-79
2021/11/20 09:19:10;;;;;;;4.32;1.83;;;17.80;63.00;;;;;;5014546;28;20018;-80
2021/11/20 09:21:38;;;;;;;5.60;2.00;;;17.50;63.70;;;;;;5025585;28;20030;-80
2021/11/20 09:24:08;;;;;;;3.63;1.85;;;17.20;63.30;;;;;;5020404;28;20034;-81
2021/11/20 09:26:35;;;;;;;3.95;2.20;;;16.80;64.30;;;;;;5033055;28;20060;-84
2021/11/20 09:29:03;;;;;;;5.25;2.30;;;16.40;64.80;;;;;;5034512;28;20030;-82
2021/11/20 09:31:31;;;;;;;4.40;2.13;;;16.00;65.50;;;;;;5032931;28;20464;-83
2021/11/20 09:33:57;;;;;;;85.57;53.28;;;15.60;66.40;;;;;;5033319;28;20039;-84
2021/11/20 09:36:24;;;;;;;38.33;25.42;;;15.40;67.70;;;;;;5036143;28;20033;-84
2021/11/20 09:38:56;;;;;;;18.08;10.68;;;15.40;67.90;;;;;;5068520;28;20029;-83
2021/11/20 09:41:54;;;;;;;11.27;5.72;;;15.30;68.00;;;;;;5040833;28;20025;-85
2021/11/20 09:44:25;;;;;;;6.47;3.50;;;15.20;68.00;;;;;;5039769;28;20049;-86
2021/11/20 09:47:09;;;;;;;4.33;2.57;;;15.40;70.40;;;;;;5038378;28;20025;-86
2021/11/20 09:49:44;;;;;;;3.33;2.10;;;16.20;68.00;;;;;;5038653;28;20022;-86
2021/11/20 09:52:10;;;;;;;4.68;1.90;;;17.00;68.40;;;;;;5041308;28;20025;-85
2021/11/20 09:54:41;;;;;;;10.88;4.65;;;17.70;64.40;;;;;;5034155;28;20049;-83
2021/11/20 09:57:14;;;;;;;29.20;19.70;;;17.60;62.60;;;;;;5035508;28;20104;-83
2021/11/20 10:00:01;;;;;;;14.65;9.63;;;17.30;61.70;;;;;;5036204;28;20039;-84
2021/11/20 10:02:55;;;;;;;8.75;4.57;;;17.00;63.10;;;;;;5035706;28;20393;-83
2021/11/20 10:05:30;;;;;;;6.60;2.90;;;16.60;62.30;;;;;;5035068;28;20148;-83
2021/11/20 10:08:17;;;;;;;4.55;2.30;;;16.40;64.80;;;;;;5033148;28;20037;-84
2021/11/20 10:11:02;;;;;;;4.85;2.25;;;16.80;63.60;;;;;;5034971;28;20034;-84
2021/11/20 10:13:31;;;;;;;5.30;2.03;;;17.10;62.40;;;;;;5033348;28;20486;-84
2021/11/20 10:16:02;;;;;;;2.97;1.73;;;17.20;61.30;;;;;;5032856;28;20065;-84
2021/11/20 10:18:51;;;;;;;6.90;2.10;;;17.00;61.20;;;;;;5032740;28;20116;-83
2021/11/20 10:21:53;;;;;;;6.28;2.15;;;16.80;59.30;;;;;;5033428;28;20035;-84
2021/11/20 10:24:41;;;;;;;6.43;2.10;;;16.40;60.60;;;;;;5032745;28;20488;-84
2021/11/20 10:27:38;;;;;;;3.92;1.75;;;16.30;62.20;;;;;;5033040;28;20594;-84
2021/11/20 10:30:04;;;;;;;4.55;1.90;;;16.80;63.30;;;;;;5034108;28;20063;-83
2021/11/20 10:32:43;;;;;;;5.00;2.15;;;17.60;61.40;;;;;;5033972;28;20123;-84
2021/11/20 10:35:33;;;;;;;6.47;2.10;;;17.60;58.40;;;;;;5032877;28;20037;-83
2021/11/20 10:38:20;;;;;;;4.72;2.00;;;17.10;57.70;;;;;;5034578;28;20029;-83
2021/11/20 10:41:02;;;;;;;5.30;1.70;;;16.50;58.50;;;;;;5034040;28;20033;-83
2021/11/20 10:43:30;;;;;;;6.45;2.42;;;15.90;60.00;;;;;;5035264;28;20052;-82
2021/11/20 10:46:20;;;;;;;4.63;2.35;;;15.70;61.40;;;;;;5033832;28;20044;-83
2021/11/20 10:49:14;;;;;;;7.15;2.40;;;16.00;61.50;;;;;;5035179;28;20448;-83
2021/11/20 10:52:14;;;;;;;5.47;2.40;;;16.20;59.60;;;;;;5033987;28;20129;-83
2021/11/20 10:54:51;;;;;;;4.93;2.25;;;16.30;58.90;;;;;;5034859;28;20037;-84
2021/11/20 10:57:52;;;;;;;4.10;1.92;;;16.10;59.60;;;;;;5034137;28;20030;-83
2021/11/20 11:00:39;;;;;;;5.97;1.92;;;16.10;59.90;;;;;;5005954;28;20065;-82
2021/11/20 11:03:08;;;;;;;5.90;1.90;;;16.30;60.60;;;;;;5038591;28;20021;-83
2021/11/20 11:05:34;;;;;;;4.43;2.20;;;16.40;60.10;;;;;;5036510;28;20388;-82
2021/11/20 11:08:20;;;;;;;5.55;1.90;;;16.30;60.00;;;;;;5035637;28;20045;-84
2021/11/20 11:10:54;;;;;;;6.88;2.42;;;16.40;58.40;;;;;;5034657;28;20025;-84
2021/11/20 11:13:40;;;;;;;7.78;2.90;;;16.60;60.50;;;;;;5033300;28;20029;-83
2021/11/20 11:16:37;;;;;;;5.53;2.38;;;16.80;57.50;;;;;;5033423;28;20029;-84
2021/11/20 11:19:22;;;;;;;5.03;2.13;;;16.50;57.10;;;;;;5034565;28;20025;-83
2021/11/20 11:21:56;;;;;;;5.70;2.35;;;16.60;58.40;;;;;;5034602;28;20048;-85
2021/11/20 11:24:40;;;;;;;4.35;1.80;;;17.00;57.40;;;;;;5035531;28;20372;-84
2021/11/20 11:27:37;;;;;;;5.70;2.28;;;17.20;56.30;;;;;;5035257;28;20115;-83
2021/11/20 11:30:30;;;;;;;4.45;1.90;;;17.20;55.70;;;;;;5032841;28;20539;-83
2021/11/20 11:32:57;;;;;;;4.70;2.10;;;16.70;56.80;;;;;;5032924;28;20053;-83
2021/11/20 11:35:38;;;;;;;5.88;2.25;;;16.60;57.50;;;;;;5033023;28;20064;-83
2021/11/20 11:38:57;;;;;;;4.57;2.10;;;17.10;56.90;;;;;;5034858;28;20036;-83
2021/11/20 11:41:45;;;;;;;5.63;1.90;;;17.80;50.90;;;;;;5029553;28;20036;-84
2021/11/20 11:44:37;;;;;;;4.97;2.10;;;18.50;48.60;;;;;;5034275;28;20824;-83
2021/11/20 11:47:05;;;;;;;4.78;1.92;;;19.10;47.50;;;;;;5034084;28;20479;-83
2021/11/20 11:49:50;;;;;;;5.88;2.40;;;19.20;48.70;;;;;;5032506;28;20113;-83
2021/11/20 11:52:46;;;;;;;5.63;2.22;;;18.50;47.20;;;;;;5034223;28;20017;-83
2021/11/20 11:55:15;;;;;;;4.60;2.03;;;18.10;49.70;;;;;;5032467;28;20033;-84
2021/11/20 11:58:03;;;;;;;6.55;2.03;;;17.90;51.80;;;;;;5034320;28;20040;-83
2021/11/20 12:00:46;;;;;;;4.10;1.88;;;18.50;50.60;;;;;;5033720;28;20025;-83
2021/11/20 12:03:23;;;;;;;4.15;1.80;;;18.60;47.90;;;;;;5032798;28;20064;-84
2021/11/20 12:06:23;;;;;;;3.65;1.75;;;18.30;50.70;;;;;;5032741;28;20503;-84
2021/11/20 12:08:59;;;;;;;4.10;1.48;;;17.70;50.10;;;;;;5034255;28;20049;-83
2021/11/20 12:11:27;;;;;;;4.40;1.88;;;17.10;52.00;;;;;;5033851;28;20060;-84
2021/11/20 12:13:54;;;;;;;8.65;2.20;;;17.10;53.60;;;;;;5031837;28;20029;-84
2021/11/20 12:16:23;;;;;;;4.05;1.83;;;17.50;53.30;;;;;;5032644;28;20128;-84
2021/11/20 12:19:00;;;;;;;5.68;2.00;;;17.90;52.60;;;;;;5033801;28;20104;-83
2021/11/20 12:21:59;;;;;;;5.28;2.25;;;18.20;50.60;;;;;;5033861;28;20057;-82
2021/11/20 12:24:48;;;;;;;5.47;1.90;;;18.00;49.70;;;;;;5017089;28;20441;-84
2021/11/20 12:27:35;;;;;;;10.07;2.30;;;17.50;50.50;;;;;;5032340;28;20124;-82
2021/11/20 12:30:32;;;;;;;5.25;2.00;;;16.70;51.30;;;;;;5032201;28;20068;-84
2021/11/20 12:33:23;;;;;;;5.68;2.00;;;16.10;52.30;;;;;;5033517;28;20025;-84
2021/11/20 12:36:26;;;;;;;5.80;1.95;;;15.60;53.00;;;;;;5032228;28;20038;-82
2021/11/20 12:39:11;;;;;;;6.95;2.08;;;15.30;54.00;;;;;;5031923;28;20040;-82
2021/11/20 12:41:43;;;;;;;4.90;1.80;;;15.00;54.80;;;;;;5048591;28;20025;-82
2021/11/20 12:44:23;;;;;;;4.85;1.75;;;15.00;54.80;;;;;;5031711;28;20053;-82
2021/11/20 12:47:07;;;;;;;6.20;2.08;;;14.80;54.80;;;;;;5033162;28;20437;-83
2021/11/20 12:49:36;;;;;;;5.57;2.10;;;14.60;55.40;;;;;;5033597;28;20029;-82
2021/11/20 12:52:23;;;;;;;4.82;2.00;;;14.50;55.70;;;;;;5033255;28;20029;-82
2021/11/20 12:55:17;;;;;;;4.07;2.15;;;14.30;56.10;;;;;;5033314;28;20108;-83
2021/11/20 12:57:45;;;;;;;4.20;1.80;;;14.10;56.90;;;;;;5033627;28;20063;-83
2021/11/20 13:00:17;;;;;;;7.20;2.00;;;14.10;56.90;;;;;;5033392;28;20451;-83
2021/11/20 13:02:43;;;;;;;5.38;2.10;;;14.20;57.40;;;;;;5033407;28;20041;-83
2021/11/20 13:05:41;;;;;;;5.85;2.60;;;14.80;56.90;;;;;;5032227;28;20128;-83
2021/11/20 13:08:22;;;;;;;8.43;3.08;;;15.40;55.30;;;;;;5028929;28;20040;-83
2021/11/20 13:11:12;;;;;;;7.25;2.88;;;15.50;52.60;;;;;;5037065;28;20030;-83
2021/11/20 13:14:06;;;;;;;9.73;2.60;;;15.20;52.40;;;;;;5045522;28;20061;-83